Tiempo atmosférico en la estación meteorológica de Alajar, Huelva (572 m.)



Fecha
DESCASC
Temp. máxima en grados centígrados (hora)
DESCASC
Temp. mínima en grados centígrados (hora)
DESCASC
Temp. media en grados centígrados
DESCASC
Racha de viento máxima en m/sg (hora)
DESCASC
Velocidad máxima media en intervalos de 10 minutos(hora)
DESCASC
Precipitaciones diarias en mm
DESCASC
Precipitaciones de 00:00 a 06:00 en mm
DESCASC
Precipitaciones de 06:00 a 12:00 en mm
DESCASC
Precipitaciones de 12:00 a 18:00 en mm
DESCASC
Precipitaciones de 18:00 a 24:00 en mm
DESCASC
20-09-2018 31.3 (16:40) 18.2 (08:20) 24.8 6.67 (18:50) 4.72 (18:50) 0 0 0 0 0
19-09-2018 32.7 (16:10) 21.7 (23:59) 27.2 11.39 (02:00) 8.61 (02:20) 0 0 0 0 0
18-09-2018 30 (18:00) 17.7 (07:00) 23.9 8.33 (23:20) 5.28 (22:30) 0 0 0 0 0
17-09-2018 31 (16:30) 17.6 (07:50) 24.3 10.83 (17:10) 6.11 (17:10) 1.6 0 0 1 0.6
16-09-2018 29.4 (17:10) 16.8 (00:00) 23.1 7.5 (12:30) 3.89 (12:30) 0 0 0 0 0
15-09-2018 29.8 (18:00) 16.5 (00:00) 23.1 14.17 (00:50) 10 (00:40) 0.2 0 0 0 0.2
14-09-2018 31.2 (15:50) 16.5 (00:00) 23.9 16.11 (16:20) 9.44 (21:40) 30.4 0 0 13.8 16.6
13-09-2018 32 (14:20) 19.2 (00:00) 25.6 10.83 (15:40) 6.39 (15:40) 10 0 0 10 0
12-09-2018 33.4 (16:50) 18.3 (00:00) 25.9 8.33 (15:40) 5.56 (19:10) 0 0 0 0 0
11-09-2018 31.2 (16:00) 17.4 (00:00) 24.3 7.78 (10:50) 4.44 (11:00) 0 0 0 0 0
10-09-2018 31 (16:40) 17.1 (00:00) 24.1 11.11 (16:10) 5.28 (15:00) 0 0 0 0 0
09-09-2018 28.6 (16:30) 17.4 (00:00) 23 7.5 (17:20) 4.44 (03:20) 0 0 0 0 0
08-09-2018 26.9 (18:10) 14.7 (00:00) 20.8 8.89 (18:20) 5.28 (15:20) 0 0 0 0 0
07-09-2018 27.1 (17:30) 12.8 (00:00) 20 10 (16:40) 5 (16:40) 0 0 0 0 0
06-09-2018 28.8 (16:20) 13.7 (00:00) 21.2 8.61 (01:10) 5.28 (01:30) 0 0 0 0 0
05-09-2018 26.9 (16:30) 15 (00:00) 20.9 7.5 (18:00) 4.17 (17:10) 0 0 0 0 0
04-09-2018 25.6 (16:40) 14.7 (00:00) 20.2 7.5 (14:00) 5 (19:30) 0 0 0 0 0
03-09-2018 27.9 (16:50) 16.9 (00:00) 22.4 8.33 (04:40) 4.72 (04:50) 0 0 0 0 0
02-09-2018 35.4 (15:50) 21.2 (00:00) 28.3 10.56 (17:30) 6.39 (17:30) 0 0 0 0 0
01-09-2018 35.6 (16:50) 20.7 (00:00) 28.1 9.72 (16:40) 4.72 (13:10) 0 0 0 0 0
31-08-2018 35.8 (16:30) 20.1 (00:00) 27.9 9.44 (17:20) 4.72 (13:30) 0 0 0 0 0
30-08-2018 34.7 (16:00) 21.2 (00:00) 28 12.78 (01:20) 9.17 (01:20) 0 0 0 0 0
29-08-2018 32.7 (17:30) 14.6 (00:00) 23.7 12.5 (00:40) 7.5 (23:50) 0 0 0 0 0
28-08-2018 33 (16:30) 19.3 (00:00) 26.1 11.11 (23:40) 6.94 (23:00) 0 0 0 0 0
27-08-2018 38.5 (15:40) 22.1 (00:00) 30.3 15.28 (13:50) 7.22 (13:50) 0 0 0 0 0
26-08-2018 37.6 (17:10) 23.2 (00:00) 30.4 10.56 (01:40) 8.06 (01:20) 0 0 0 0 0
25-08-2018 37.5 (16:00) 25.3 (00:00) 31.4 10.83 (03:10) 8.61 (03:10) 0 0 0 0 0

Gráficas

Temp. máximas Temp. mínimas Temp. medias Precipitaciones Rachas de viento máximas Velocidades máximas media en intervalos de 10 minutos

Datos horarios

Fecha y hora oficial Temperatura (ºC) Velocidad del viento (km/h) Dirección del viento Racha (km/h) Dirección de racha Precipitación (mm) Presión (hPa) Tendencia (hPa) Humedad (%)
2018-09-23 23:00:00 24.1 4 Nordeste 12 Nordeste 0 955.6 0.9 42
2018-09-23 22:00:00 25.6 8 Nordeste 13 Nordeste 0 955.3 0.9 38
2018-09-23 21:00:00 26.9 6 Nordeste 11 Este 0 954.8 0.4 36
2018-09-23 20:00:00 29.9 5 Nordeste 13 Sudeste 0 954.7 0 32
2018-09-23 19:00:00 32.7 12 Sur 22 Sur 0 954.4 -0.9 24
2018-09-23 18:00:00 34.4 6 Sudeste 20 Sudeste 0 954.4 -1.3 21
2018-09-23 17:00:00 34.7 10 Sudeste 23 Sudeste 0 954.7 -1.7 19
2018-09-23 16:00:00 34.3 13 Sudeste 27 Sudeste 0 955.3 -1.4 21
2018-09-23 15:00:00 34 5 Sur 21 Sudeste 0 955.7 -1.3 21
2018-09-23 14:00:00 33.3 6 Sur 21 Sur 0 956.4 -0.6 21
2018-09-23 13:00:00 32.5 10 Sur 19 Sudeste 0 956.7 0.1 23
2018-09-23 12:00:00 31.4 8 Sudeste 17 Este 0 957 0.8 25
2018-09-23 11:00:00 30.3 6 Sudeste 12 Este 0 957 1.2 28
2018-09-23 10:00:00 26.5 5 Nordeste 12 Nordeste 0 956.6 1 39
2018-09-23 09:00:00 23.8 9 Nordeste 12 Nordeste 0 956.2 0.8 37
2018-09-23 08:00:00 22.6 7 Nordeste 10 Este 0 955.8 0.2 40
2018-09-23 07:00:00 22.7 6 Nordeste 11 Nordeste 0 955.6 -0.3 41
2018-09-23 06:00:00 22 8 Nordeste 10 Nordeste 0 955.4 -0.9 42
2018-09-23 05:00:00 21 3 Norte 9 Nordeste 0 955.6 -0.7 47
2018-09-23 04:00:00 21.2 7 Nordeste 9 Nordeste 0 955.9 -0.6 48
2018-09-23 03:00:00 22.1 5 Nordeste 12 Nordeste 0 956.3 -0.5 46
2018-09-23 02:00:00 22.4 4 Oeste 9 Norte 0 956.3 -0.2 46
2018-09-23 01:00:00 23.6 7 Nordeste 11 Nordeste 0 956.5 0.2 43
2018-09-23 00:00:00 23.1 5 Noroeste 12 Noroeste 0 956.8 1.3 43
2018-09-22 23:00:00 23.6 4 Noroeste 8 Sudoeste 0 956.5 1.3 47
2018-09-22 22:00:00 25.6 5 Oeste 14 Oeste 0 956.3 1.3 40
2018-09-22 21:00:00 25.9 5 Nordeste 10 Sur 0 955.5 0.7 36
2018-09-22 20:00:00 30.5 4 Sudeste 19 Sur 0 955.2 0.2 26
2018-09-22 19:00:00 32.6 9 Sur 23 Sur 0 955 -0.3 23
2018-09-22 18:00:00 33.7 9 Sudeste 20 Sur 0 954.8 -0.9 22
2018-09-22 17:00:00 33.8 11 Sudeste 25 Sur 0 955 -1.2 21
2018-09-22 16:00:00 34.1 9 Sudeste 28 Sur 0 955.3 -1.3 20
2018-09-22 15:00:00 33.8 11 Sur 24 Sur 0 955.7 -0.8 23
2018-09-22 14:00:00 33.1 9 Sudeste 25 Sur 0 956.2 -0.1 26
2018-09-22 13:00:00 32.2 13 Sur 22 Sur 0 956.6 0.8 28
2018-09-22 12:00:00 31 9 Sudeste 18 Este 0 956.5 1 29
2018-09-22 11:00:00 29.8 5 Este 12 Sudeste 0 956.3 1.5 35
2018-09-22 10:00:00 25.8 0 Calma 7 Nordeste 0 955.8 1.2 48
2018-09-22 09:00:00 23.1 6 Nordeste 9 Nordeste 0 955.5 1.2 46
2018-09-22 08:00:00 22.8 8 Nordeste 12 Nordeste 0 954.8 0.7 44
2018-09-22 07:00:00 22.6 8 Nordeste 11 Nordeste 0 954.6 0.5 46
2018-09-22 06:00:00 22.2 7 Nordeste 10 Este 0 954.3 0 47
2018-09-22 05:00:00 22.7 6 Nordeste 9 Nordeste 0 954.1 -0.4 45
2018-09-22 04:00:00 22.4 4 Nordeste 9 Nordeste 0 954.1 -0.6 48
2018-09-22 03:00:00 22.6 4 Noroeste 18 Nordeste 0 954.3 -0.3 45
2018-09-22 02:00:00 23.3 12 Nordeste 18 Norte 0 954.5 0.1 44
2018-09-22 01:00:00 21.9 3 Noroeste 6 Noroeste 0 954.7 0.6 48
2018-09-22 00:00:00 22.2 3 Noroeste 8 Noroeste 0 954.6 1.2 50
2018-09-21 23:00:00 23.3 2 Oeste 8 Norte 0 954.4 1.6 52
2018-09-21 22:00:00 24.7 5 Norte 10 Oeste 0 954.1 1.6 47
2018-09-21 21:00:00 25.2 5 Noroeste 13 Noroeste 0 953.4 1.1 46
2018-09-21 20:00:00 27.8 3 Nordeste 5 Nordeste 0 952.8 0.3 40
2018-09-21 19:00:00 30.8 5 Sudeste 17 Sudoeste 0 952.5 -0.2 29
2018-09-21 18:00:00 32 9 Sudoeste 20 Sudoeste 0 952.3 -1 28
2018-09-21 17:00:00 32.6 10 Sudoeste 20 Sur 0 952.5 -1.2 28
2018-09-21 16:00:00 31.8 12 Sur 26 Sur 0 952.7 -1.4 29
2018-09-21 15:00:00 31.6 9 Sur 21 Sur 0 953.3 -1 30
2018-09-21 14:00:00 30.9 10 Sur 19 Sur 0 953.7 -0.2 33
2018-09-21 13:00:00 29.9 9 Sudoeste 19 Sudoeste 0 954.1 0.8 35
2018-09-21 12:00:00 28.7 6 Sudoeste 13 Sur 0 954.3 1.3 38
2018-09-21 11:00:00 27.3 4 Sur 10 Sudeste 0 953.9 1.1 39
2018-09-21 10:00:00 23.8 3 Nordeste 10 Nordeste 0 953.3 0.9 56
2018-09-21 09:00:00 20.2 5 Nordeste 9 Nordeste 0 953 0.9 56
2018-09-21 08:00:00 20.4 4 Nordeste 10 Nordeste 0 952.8 0.8 51
2018-09-21 07:00:00 19.8 3 Nordeste 5 Nordeste 0 952.4 0.1 54
2018-09-21 06:00:00 21.2 3 Oeste 26 Norte 0 952.1 -0.6 55
2018-09-21 05:00:00 22.3 18 Norte 35 Norte 0 952 -1 40
2018-09-21 04:00:00 22.3 24 Norte 33 Norte 0 952.3 -0.9 46
2018-09-21 03:00:00 21.9 9 Norte 20 Norte 0 952.7 -0.5 54
2018-09-21 02:00:00 19.9 5 Sur 7 Sur 0 953 -0.2 74
2018-09-21 01:00:00 21.1 3 Noroeste 8 Noroeste 0 953.2 0.3 72
2018-09-21 00:00:00 21.8 4 Noroeste 9 Oeste 0 953.2 0.9 72
2018-09-20 23:00:00 22.7 3 Noroeste 15 Sudoeste 0 953.2 1.1 69
2018-09-20 22:00:00 24.1 4 Oeste 21 Oeste 0 952.9 1 62
2018-09-20 21:00:00 24.5 4 Noroeste 14 Norte 0 952.3 0.3 56
2018-09-20 20:00:00 26.4 11 Norte 18 Norte 0 952.1 -0.2 47
2018-09-20 19:00:00 27.5 11 Norte 24 Norte 0 951.9 -1 47
2018-09-20 18:00:00 30.8 7 Sur 19 Sur 0 952 -1.5 34
2018-09-20 17:00:00 31.2 12 Sur 19 Sur 0 952.3 -1.8 36
2018-09-20 16:00:00 30.8 7 Sur 15 Noroeste 0 952.9 -1.7 37
2018-09-20 15:00:00 30.2 12 Sudoeste 21 Sudoeste 0 953.5 -1.4 39
2018-09-20 14:00:00 29.8 5 Sur 17 Sur 0 954.1 -0.6 42
2018-09-20 13:00:00 27.8 9 Sudoeste 18 Sudoeste 0 954.6 0.2 49
2018-09-20 12:00:00 26.4 8 Sudoeste 18 Sudoeste 0 954.9 0.8 53
2018-09-20 11:00:00 24.4 10 Sudoeste 15 Sur 0 954.7 1.1 61
2018-09-20 10:00:00 21.9 3 Noroeste 6 Noroeste 0 954.4 0.8 69
2018-09-20 09:00:00 18.7 4 Noroeste 6 Noroeste 0 954.1 0.6 76
2018-09-20 08:00:00 18.6 2 Nordeste 9 Nordeste 0 953.6 -0.1 74
2018-09-20 07:00:00 19.4 3 Oeste 5 Oeste 0 953.6 -0.1 69
2018-09-20 06:00:00 20.1 3 Nordeste 7 Nordeste 0 953.5 -0.5 67
2018-09-20 05:00:00 21 8 Nordeste 13 Norte 0 953.7 -0.5 63
2018-09-20 04:00:00 23.3 13 Norte 20 Noroeste 0 953.7 -0.7 52
2018-09-20 03:00:00 21.5 3 Este 6 Norte 0 954 -0.7 63
2018-09-20 02:00:00 22.4 2 Norte 10 Noroeste 0 954.2 -0.5 60
2018-09-20 01:00:00 21.4 0 Calma 8 Noroeste 0 954.4 0.1 67
2018-09-20 00:00:00 21.7 3 Oeste 5 Norte 0 954.7 0.9 67
2018-09-19 23:00:00 23.1 3 Noroeste 8 Noroeste 0 954.7 1.3 62
2018-09-19 22:00:00 24.8 3 Noroeste 11 Noroeste 0 954.3 1.2 55
2018-09-19 21:00:00 26.5 7 Noroeste 18 Oeste 0 953.8 1 49
2018-09-19 20:00:00 28.6 11 Sudoeste 20 Sudoeste 0 953.4 0.4 43
2018-09-19 19:00:00 30.9 7 Sudoeste 17 Sur 0 953.1 -0.4 36
2018-09-19 18:00:00 31.5 8 Sudoeste 20 Sur 0 952.8 -1.2 34
2018-09-19 17:00:00 32.3 9 Sur 23 Sur 0 953 -1.3 31
2018-09-19 16:00:00 32.1 6 Sur 22 Sudoeste 0 953.5 -1.1 32
2018-09-19 15:00:00 31 7 Sur 18 Este 0 954 -0.8 34
2018-09-19 14:00:00 30.3 11 Nordeste 20 Nordeste 0 954.3 0 37
2018-09-19 13:00:00 30 10 Sur 16 Sur 0 954.6 0.8 36
2018-09-19 12:00:00 28.6 8 Sur 18 Sur 0 954.8 1.5 38
2018-09-19 11:00:00 27.6 8 Sudeste 15 Sur 0 954.3 1.3 41
2018-09-19 10:00:00 25.3 3 Este 10 Norte 0 953.8 1 48
2018-09-19 09:00:00 22.2 8 Nordeste 13 Norte 0 953.3 0.7 51
2018-09-19 08:00:00 22.3 9 Nordeste 17 Nordeste 0 953 0.7 48
2018-09-19 07:00:00 22.5 7 Nordeste 16 Nordeste 0 952.8 0.6 48
2018-09-19 06:00:00 22.4 8 Nordeste 22 Nordeste 0 952.6 0.1 48
2018-09-19 05:00:00 22.4 17 Norte 38 Nordeste 0 952.3 -0.2 48
2018-09-19 04:00:00 22.7 25 Norte 40 Norte 0 952.2 -0.3 46
2018-09-19 03:00:00 22.9 28 Norte 39 Norte 0 952.5 -0.1 47
2018-09-19 02:00:00 22.5 28 Norte 41 Norte 0 952.5 0.1 49
2018-09-19 01:00:00 23.1 26 Norte 39 Nordeste 0 952.5 0.4 49
2018-09-19 00:00:00 23.5 18 Norte 30 Norte 0 952.6 1.1 49
2018-09-18 23:00:00 24.5 16 Norte 27 Noroeste 0 952.4 1.4 45
2018-09-18 22:00:00 24 13 Norte 18 Norte 0 952.1 1.5 47
2018-09-18 21:00:00 24.5 14 Norte 18 Norte 0 951.5 1.1 48
2018-09-18 20:00:00 27.2 9 Norte 19 Oeste 0 951 0.4 42
2018-09-18 19:00:00 28.9 10 Norte 19 Noroeste 0 950.6 -0.1 39
2018-09-18 18:00:00 29.4 9 Noroeste 23 Noroeste 0 950.4 -0.6 38
2018-09-18 17:00:00 28.2 8 Norte 17 Norte 0 950.6 -0.8 46
2018-09-18 16:00:00 28.8 6 Noroeste 27 Sudoeste 0 950.7 -0.8 43
2018-09-18 15:00:00 29.3 11 Sudoeste 23 Sudoeste 0 951 -0.6 46
2018-09-18 14:00:00 28.8 8 Sudoeste 17 Sur 0 951.4 0 50
2018-09-18 13:00:00 27.2 8 Sudoeste 15 Sudoeste 0 951.5 0.5 55
2018-09-18 12:00:00 25.8 8 Sur 14 Sur 0 951.6 1 58
2018-09-18 11:00:00 24.8 6 Sudoeste 9 Sudoeste 0 951.4 1.2 62
2018-09-18 10:00:00 22.2 0 Calma 4 Noroeste 0 951 1.1 69
2018-09-18 09:00:00 18.6 5 Nordeste 9 Nordeste 0 950.6 1.1 82
2018-09-18 08:00:00 17.9 5 Nordeste 9 Nordeste 0 950.2 0.4 82
2018-09-18 07:00:00 17.8 5 Norte 12 Nordeste 0 949.9 0.3 83
2018-09-18 06:00:00 18.2 4 Sudeste 6 Nordeste 0 949.5 -0.4 80
2018-09-18 05:00:00 19 4 Nordeste 9 Este 0 949.8 -0.1 76
2018-09-18 04:00:00 18.6 4 Este 7 Norte 0 949.6 -0.3 78
2018-09-18 03:00:00 19.4 2 Este 7 Este 0 949.9 -0.3 76
2018-09-18 02:00:00 20.8 4 Noroeste 11 Nordeste 0 949.9 -0.1 69
2018-09-18 01:00:00 21.2 6 Norte 19 Norte 0 949.9 0.3 70
2018-09-18 00:00:00 22 6 Noroeste 22 Noroeste 0 950.2 0.7 68
2018-09-17 23:00:00 20.3 5 Este 12 Oeste 0 950 0.6 80
2018-09-17 22:00:00 20.1 4 Sur 31 Norte 0 949.6 -0.2 82
2018-09-17 21:00:00 19.3 4 Sur 11 Norte 0.4 949.5 0.2 85
2018-09-17 20:00:00 20.1 7 Norte 22 Noroeste 0 949.4 0.3 74
2018-09-17 19:00:00 20.2 5 Oeste 18 Sur 0.2 949.8 0.2 91
2018-09-17 18:00:00 21.8 5 Oeste 39 Norte 1 949.3 -1.1 85
2018-09-17 17:00:00 27.1 20 Noroeste 37 Norte 0 949.1 -2.1 54
2018-09-17 16:00:00 30.2 10 Sur 19 Sur 0 949.6 -2 43
2018-09-17 15:00:00 28.1 4 Oeste 16 Sudeste 0 950.4 -1.4 50
2018-09-17 14:00:00 27.6 6 Sudeste 21 Sur 0 951.2 -0.4 54
2018-09-17 13:00:00 27.4 11 Sur 22 Sur 0 951.6 0.3 52
2018-09-17 12:00:00 26.8 7 Sudoeste 18 Sudoeste 0 951.8 0.3 58
2018-09-17 11:00:00 25.3 8 Sudoeste 15 Sur 0 951.6 0.6 62
2018-09-17 10:00:00 23.1 2 Sudeste 6 Norte 0 951.3 -0.2 70
2018-09-17 09:00:00 18.8 0 Calma 6 Noroeste 0 951.5 -0.1 83
2018-09-17 08:00:00 18 4 Norte 10 Este 0 951 -0.7 82
2018-09-17 07:00:00 18.5 7 Nordeste 10 Nordeste 0 951.5 -0.1 78
2018-09-17 06:00:00 18.8 6 Nordeste 11 Nordeste 0 951.6 -0.5 75
2018-09-17 05:00:00 19 2 Norte 10 Nordeste 0 951.7 -0.5 74
2018-09-17 04:00:00 19.5 7 Nordeste 13 Nordeste 0 951.6 -1 71
2018-09-17 03:00:00 19.8 3 Norte 10 Nordeste 0 952.1 -0.7 68
2018-09-17 02:00:00 20 3 Sudoeste 14 Nordeste 0 952.2 -0.8 70
2018-09-17 01:00:00 20 0 Calma 6 Noroeste 0 952.6 -0.3 72
2018-09-17 00:00:00 21 7 Nordeste 10 Nordeste 0 952.8 0.3 67
2018-09-16 23:00:00 20.7 3 Noroeste 12 Nordeste 0 953 0.8 70
2018-09-16 22:00:00 21.5 4 Noroeste 8 Nordeste 0 952.9 0.8 66
2018-09-16 21:00:00 22.8 2 Sudeste 11 Nordeste 0 952.5 0.4 62
2018-09-16 20:00:00 25.5 6 Nordeste 9 Nordeste 0 952.2 -0.2 54
2018-09-16 19:00:00 28.4 4 Este 18 Sudeste 0 952.1 -0.6 42
2018-09-16 18:00:00 28.4 11 Sur 18 Sudeste 0 952.1 -1.5 43
2018-09-16 17:00:00 28.9 8 Sudoeste 23 Sudeste 0 952.4 -2 43
2018-09-16 16:00:00 27.9 9 Sudeste 20 Sur 0 952.7 -2.2 46
2018-09-16 15:00:00 26.7 7 Este 23 Sudeste 0 953.6 -1.4 50
2018-09-16 14:00:00 26.6 12 Sudeste 23 Sur 0 954.4 -0.2 54
2018-09-16 13:00:00 25 10 Sudeste 27 Sur 0 954.9 0.6 62
2018-09-16 12:00:00 24.8 10 Sudeste 22 Sudeste 0 955 0.9 61
2018-09-16 11:00:00 23.7 10 Sudeste 18 Sudeste 0 954.6 1 64
2018-09-16 10:00:00 21.8 2 Sur 5 Sur 0 954.3 0.7 75
2018-09-16 09:00:00 17.8 4 Nordeste 9 Nordeste 0 954.1 0.6 91
2018-09-16 08:00:00 17.6 6 Nordeste 11 Este 0 953.6 -0.2 94
2018-09-16 07:00:00 17.2 6 Este 9 Nordeste 0 953.6 -0.2 93
2018-09-16 06:00:00 16.9 6 Este 10 Este 0 953.5 -0.6 90
2018-09-16 05:00:00 17.4 6 Nordeste 9 Nordeste 0 953.8 -0.6 87
2018-09-16 04:00:00 18 7 Nordeste 10 Nordeste 0 953.8 -0.6 87
2018-09-16 03:00:00 18.3 8 Nordeste 11 Nordeste 0 954.1 -0.3 87
2018-09-16 02:00:00 18.2 4 Nordeste 9 Nordeste 0 954.4 0.2 87
2018-09-16 01:00:00 18.5 2 Sudeste 9 Nordeste 0 954.4 0.4 89
2018-09-16 00:00:00 19 6 Nordeste 11 Nordeste 0 954.4 1.5 85
2018-09-15 23:00:00 19.4 5 Norte 13 Sudeste 0 954.2 2.1 84
2018-09-15 22:00:00 20.3 5 Este 12 Nordeste 0 954 2.5 83
2018-09-15 21:00:00 20.6 5 Norte 19 Sur 0.2 952.9 1.5 85
2018-09-15 20:00:00 27.5 5 Sudeste 12 Este 0 952.1 0.4 43
2018-09-15 19:00:00 29.1 4 Este 21 Nordeste 0 951.5 -0.4 39
2018-09-15 18:00:00 29.4 6 Nordeste 22 Nordeste 0 951.4 -0.9 39
2018-09-15 17:00:00 28.7 9 Este 23 Este 0 951.7 -1.2 38
2018-09-15 16:00:00 28.3 9 Este 23 Este 0 951.9 -1.4 44
2018-09-15 15:00:00 28.6 8 Este 23 Este 0 952.3 -1.2 42
2018-09-15 14:00:00 27.4 9 Este 22 Este 0 952.9 -0.4 44
2018-09-15 13:00:00 26.1 10 Nordeste 23 Nordeste 0 953.3 0.5 52
2018-09-15 12:00:00 25.5 9 Nordeste 19 Sudeste 0 953.5 1 48
2018-09-15 11:00:00 23.4 14 Norte 21 Nordeste 0 953.3 1 58
2018-09-15 10:00:00 19.5 4 Noroeste 8 Nordeste 0 952.8 0.9 71
2018-09-15 09:00:00 17 2 Noroeste 10 Nordeste 0 952.5 1 85
2018-09-15 08:00:00 17 3 Sudeste 5 Sudeste 0 952.3 1 78
2018-09-15 07:00:00 17.6 3 Nordeste 12 Nordeste 0 951.9 0.5 77
2018-09-15 06:00:00 18.6 5 Nordeste 8 Nordeste 0 951.5 -0.3 71
2018-09-15 05:00:00 18.3 0 Calma 11 Este 0 951.3 -0.2 74
2018-09-15 04:00:00 19.1 8 Nordeste 16 Norte 0 951.4 -0.9 68
2018-09-15 03:00:00 19.2 3 Sur 38 Norte 0 951.8 -1.6 69
2018-09-15 02:00:00 18.7 13 Norte 43 Norte 0 951.5 -3.1 73
2018-09-15 01:00:00 17.9 35 Norte 51 Nordeste 0 952.3 -2.8 78
2018-09-15 00:00:00 17.5 21 Norte 33 Norte 0.4 953.4 -0.6 83
2018-09-14 23:00:00 17 5 Noroeste 39 Nordeste 3.6 954.6 2.5 91
2018-09-14 22:00:00 16.9 26 Nordeste 50 Nordeste 2 955.1 2.7 98
2018-09-14 21:00:00 17.5 10 Nordeste 40 Norte 1 954 2.3 91
2018-09-14 20:00:00 17.4 12 Sudeste 30 Este 0.8 952.1 0.8 82
2018-09-14 19:00:00 17.3 18 Nordeste 48 Nordeste 8.8 952.4 0.7 77
2018-09-14 18:00:00 18.7 8 Nordeste 15 Nordeste 0.2 951.7 -0.4 94
2018-09-14 17:00:00 18.6 5 Este 58 Nordeste 13.6 951.3 -1.3 97
2018-09-14 16:00:00 30.9 12 Sur 25 Sur 0 951.7 -1.2 38
2018-09-14 15:00:00 29.9 7 Oeste 25 Sudoeste 0 952.1 -1 43
2018-09-14 14:00:00 29.1 10 Sudoeste 19 Sudoeste 0 952.6 -0.1 49
2018-09-14 13:00:00 27.9 12 Sudoeste 18 Sudoeste 0 952.9 0.6 47
2018-09-14 12:00:00 26 6 Sur 11 Sudoeste 0 953.1 1 57
2018-09-14 11:00:00 24 3 Sudoeste 7 Sur 0 952.7 1 67
2018-09-14 10:00:00 21.6 0 Calma 4 Sudoeste 0 952.3 0.9 74
2018-09-14 09:00:00 18.4 3 Noroeste 8 Nordeste 0 952.1 1 82
2018-09-14 08:00:00 18.6 4 Nordeste 8 Nordeste 0 951.7 0.3 74
2018-09-14 07:00:00 19.3 3 Noroeste 19 Nordeste 0 951.4 -0.5 81
2018-09-14 06:00:00 20.7 10 Nordeste 19 Nordeste 0 951.1 -1 59
2018-09-14 05:00:00 21.9 14 Nordeste 22 Nordeste 0 951.4 -1.3 52
2018-09-14 04:00:00 21 11 Nordeste 19 Norte 0 951.9 -1.1 60
2018-09-14 03:00:00 21.8 12 Nordeste 20 Norte 0 952.1 -1.3 55
2018-09-14 02:00:00 20.2 5 Noroeste 14 Noroeste 0 952.7 -0.6 75
2018-09-14 01:00:00 19.7 3 Noroeste 6 Nordeste 0 953 0.5 93
2018-09-14 00:00:00 19.9 3 Nordeste 14 Oeste 0 953.4 1.1 93
2018-09-13 23:00:00 19.8 6 Oeste 17 Sudoeste 0 953.3 1.1 95
2018-09-13 22:00:00 20.8 4 Sudeste 12 Noroeste 0 952.5 0 83
2018-09-13 21:00:00 21.1 3 Oeste 10 Nordeste 0 952.3 -0.2 90
2018-09-13 20:00:00 23.8 3 Noroeste 7 Noroeste 0 952.2 -1.4 84
2018-09-13 19:00:00 24.3 3 Oeste 8 Nordeste 0 952.5 -0.7 89
2018-09-13 18:00:00 19.9 6 Este 26 Norte 0.4 952.5 -0.7 94
2018-09-13 17:00:00 20.4 9 Sudeste 27 Oeste 9.6 953.6 -0.4 90
2018-09-13 16:00:00 26 18 Noroeste 39 Noroeste 0 953.2 -1.3 48
2018-09-13 15:00:00 30.8 14 Sudoeste 30 Sudoeste 0 953.2 -1.5 41
2018-09-13 14:00:00 31.2 12 Sudoeste 20 Sur 0 954 -0.3 41
2018-09-13 13:00:00 29.4 6 Sur 18 Sudoeste 0 954.5 0.5 46
2018-09-13 12:00:00 27.9 8 Sudoeste 17 Sudoeste 0 954.7 0.8 47
2018-09-13 11:00:00 26.3 8 Sudoeste 13 Sur 0 954.3 0.5 52
2018-09-13 10:00:00 24.2 2 Sudoeste 4 Sudoeste 0 954 0.5 65
2018-09-13 09:00:00 19.7 2 Norte 10 Nordeste 0 953.9 0.9 78
2018-09-13 08:00:00 19.7 7 Nordeste 10 Nordeste 0 953.8 0.4 77
2018-09-13 07:00:00 19.7 3 Norte 6 Sudoeste 0 953.5 -0.1 77
2018-09-13 06:00:00 21.4 2 Oeste 6 Nordeste 0 953 -1.3 67
2018-09-13 05:00:00 21.1 4 Sudoeste 13 Norte 0 953.4 -1.4 74
2018-09-13 04:00:00 21.6 7 Norte 15 Norte 0 953.6 -1.7 69
2018-09-13 03:00:00 19.5 3 Norte 7 Sudeste 0 954.3 -1.2 82
2018-09-13 02:00:00 20.7 3 Sur 11 Noroeste 0 954.8 -0.7 74
2018-09-13 01:00:00 21.9 3 Norte 11 Norte 0 955.3 0.1 68
2018-09-13 00:00:00 22.5 4 Norte 10 Nordeste 0 955.5 0.7 63
2018-09-12 23:00:00 23.2 4 Noroeste 6 Noroeste 0 955.5 1.1 66
2018-09-12 22:00:00 24.3 2 Sudoeste 20 Sudoeste 0 955.2 0.9 68
2018-09-12 21:00:00 25.7 11 Sudoeste 22 Sudoeste 0 954.8 0.7 63
2018-09-12 20:00:00 27.6 11 Sudoeste 28 Sudoeste 0 954.4 0.3 54
2018-09-12 19:00:00 29.6 17 Sudoeste 29 Sudoeste 0 954.3 -0.4 48
2018-09-12 18:00:00 32.4 10 Sudoeste 23 Sudoeste 0 954.1 -1 31
2018-09-12 17:00:00 33.3 10 Sudoeste 26 Sudoeste 0 954.1 -1.7 27
2018-09-12 16:00:00 32.9 11 Sudoeste 30 Sur 0 954.7 -1.6 28
2018-09-12 15:00:00 32 5 Este 24 Sudeste 0 955.1 -1.2 29
2018-09-12 14:00:00 31.4 13 Sur 26 Sudeste 0 955.8 -0.3 34
2018-09-12 13:00:00 30.4 8 Sur 20 Sur 0 956.3 0.5 41
2018-09-12 12:00:00 28.1 5 Sur 14 Sudeste 0 956.3 0.9 49
2018-09-12 11:00:00 26.7 4 Sur 10 Sudoeste 0 956.1 1.1 54
2018-09-12 10:00:00 24.6 3 Sudoeste 5 Sudoeste 0 955.8 1.1 63
2018-09-12 09:00:00 19.5 3 Nordeste 6 Nordeste 0 955.4 0.7 79
2018-09-12 08:00:00 18.5 3 Norte 6 Norte 0 955 0.6 83
2018-09-12 07:00:00 18.4 2 Nordeste 10 Nordeste 0 954.7 0.2 82
2018-09-12 06:00:00 18.5 5 Este 10 Nordeste 0 954.7 0.2 78
2018-09-12 05:00:00 18.8 3 Noroeste 8 Noroeste 0 954.4 -0.3 76
2018-09-12 04:00:00 19 3 Oeste 7 Oeste 0 954.5 -0.5 79
2018-09-12 03:00:00 19.9 0 Calma 11 Norte 0 954.5 -0.3 78
2018-09-12 02:00:00 21 5 Norte 10 Oeste 0 954.7 0.4 76
2018-09-12 01:00:00 21.2 3 Norte 9 Noroeste 0 955 1.5 72
2018-09-12 00:00:00 21.7 3 Noroeste 10 Noroeste 0 954.8 1.9 65
2018-09-11 23:00:00 23.3 5 Noroeste 11 Nordeste 0 954.3 1.7 56
2018-09-11 22:00:00 24.1 8 Nordeste 11 Nordeste 0 953.5 1 48
2018-09-11 21:00:00 25.1 6 Nordeste 11 Sudeste 0 952.9 0.3 47
2018-09-11 20:00:00 28 6 Sudeste 21 Este 0 952.6 -0.2 40
2018-09-11 19:00:00 29.2 9 Sur 20 Sudeste 0 952.5 -0.8 38
2018-09-11 18:00:00 29.4 8 Sur 22 Sudeste 0 952.6 -1.4 37
2018-09-11 17:00:00 29.5 9 Sur 24 Este 0 952.8 -1.8 37
2018-09-11 16:00:00 31.2 14 Sur 24 Sur 0 953.3 -1.5 36
2018-09-11 15:00:00 30.4 9 Sudeste 27 Sudeste 0 954 -1.2 38
2018-09-11 14:00:00 28 9 Este 26 Este 0 954.6 -0.7 44
2018-09-11 13:00:00 28.6 14 Sur 28 Sudeste 0 954.8 0 43
2018-09-11 12:00:00 26.9 11 Sur 24 Sudeste 0 955.2 0.6 49
2018-09-11 11:00:00 25 16 Sudeste 28 Sudeste 0 955.3 1 53
2018-09-11 10:00:00 24.3 6 Sudeste 15 Este 0 954.8 0.7 55
2018-09-11 09:00:00 19.7 6 Este 14 Nordeste 0 954.6 0.6 67
2018-09-11 08:00:00 18.4 6 Nordeste 11 Nordeste 0 954.3 0.4 65
2018-09-11 07:00:00 17.7 6 Nordeste 9 Nordeste 0 954.1 0.1 69
2018-09-11 06:00:00 17.6 2 Sudoeste 9 Nordeste 0 954 -0.3 71
2018-09-11 05:00:00 18 0 Calma 11 Nordeste 0 953.9 -0.6 66
2018-09-11 04:00:00 19.2 4 Norte 8 Nordeste 0 954 -0.5 58
2018-09-11 03:00:00 20.1 5 Nordeste 13 Nordeste 0 954.3 -0.4 55
2018-09-11 02:00:00 21.6 5 Nordeste 18 Este 0 954.5 -0.1 50
2018-09-11 01:00:00 23.2 9 Este 20 Este 0 954.5 0.4 44
2018-09-11 00:00:00 23.1 8 Este 14 Este 0 954.7 1.2 43
2018-09-10 23:00:00 23.3 9 Este 13 Este 0 954.6 1.4 41
2018-09-10 22:00:00 23.5 8 Nordeste 14 Sudeste 0 954.1 1 39
2018-09-10 21:00:00 24.5 9 Nordeste 21 Este 0 953.5 0.5 35
2018-09-10 20:00:00 28 11 Este 26 Este 0 953.2 0 28
2018-09-10 19:00:00 29.5 14 Nordeste 30 Nordeste 0 953.1 -0.7 26
2018-09-10 18:00:00 30.3 12 Nordeste 35 Nordeste 0 953 -1.1 24
2018-09-10 17:00:00 30.3 14 Este 40 Nordeste 0 953.2 -1.7 24
2018-09-10 16:00:00 30.8 11 Nordeste 31 Sudeste 0 953.8 -1.6 26
2018-09-10 15:00:00 29.4 19 Nordeste 37 Norte 0 954.1 -1.3 30
2018-09-10 14:00:00 29.2 14 Este 30 Este 0 954.9 -0.3 32
2018-09-10 13:00:00 28.5 8 Nordeste 28 Este 0 955.4 0.4 36
2018-09-10 12:00:00 26.7 13 Este 25 Sudeste 0 955.4 0.8 35
2018-09-10 11:00:00 24.7 9 Sur 16 Sur 0 955.2 0.9 44
2018-09-10 10:00:00 22.6 9 Sudeste 15 Sudeste 0 955 0.9 54
2018-09-10 09:00:00 18.1 4 Este 9 Nordeste 0 954.6 0.5 68
2018-09-10 08:00:00 17.8 5 Nordeste 10 Nordeste 0 954.3 0.1 65
2018-09-10 07:00:00 17.8 6 Nordeste 9 Nordeste 0 954.1 -0.3 64
2018-09-10 06:00:00 18.3 6 Nordeste 10 Nordeste 0 954.1 -0.3 62
2018-09-10 05:00:00 17.9 7 Nordeste 11 Nordeste 0 954.2 -0.2 78
2018-09-10 04:00:00 17.7 5 Nordeste 10 Nordeste 0 954.4 0.1 81
2018-09-10 03:00:00 17.6 8 Este 12 Este 0 954.4 0 79
2018-09-10 02:00:00 18.2 8 Nordeste 12 Nordeste 0 954.4 0 76
2018-09-10 01:00:00 18.7 3 Nordeste 11 Este 0 954.3 0.5 73
2018-09-10 00:00:00 18.6 4 Nordeste 10 Nordeste 0 954.4 1.6 74
2018-09-09 23:00:00 18.9 8 Nordeste 22 Sudeste 0 954.4 2.1 75
2018-09-09 22:00:00 20.2 6 Nordeste 13 Nordeste 0 953.8 1.6 66
2018-09-09 21:00:00 20.7 9 Nordeste 17 Nordeste 0 952.8 0.5 67
2018-09-09 20:00:00 21.2 9 Norte 26 Norte 0 952.3 0.7 70
2018-09-09 19:00:00 22.2 10 Nordeste 25 Este 0 952.2 0.2 65
2018-09-09 18:00:00 23.5 13 Sudeste 27 Nordeste 0 952.3 -0.4 64
2018-09-09 17:00:00 25.3 14 Norte 25 Norte 0 951.6 -1.3 51
2018-09-09 16:00:00 27.5 6 Este 20 Nordeste 0 952 -1.6 45
2018-09-09 15:00:00 25.3 6 Nordeste 21 Sudeste 0 952.7 -0.9 53
2018-09-09 14:00:00 25.2 6 Este 26 Nordeste 0 952.9 -0.6 51
2018-09-09 13:00:00 23 13 Nordeste 26 Nordeste 0 953.6 0.4 58
2018-09-09 12:00:00 23.8 9 Sudeste 22 Sur 0 953.6 0.8 57
2018-09-09 11:00:00 21.7 6 Sudeste 17 Este 0 953.5 1.3 63
2018-09-09 10:00:00 19.9 7 Este 15 Este 0 953.2 1.1 67
2018-09-09 09:00:00 19.2 7 Este 12 Este 0 952.8 0.7 67
2018-09-09 08:00:00 18.4 4 Nordeste 8 Nordeste 0 952.2 0.2 70
2018-09-09 07:00:00 18.5 4 Nordeste 9 Nordeste 0 952.1 -0.2 69
2018-09-09 06:00:00 18.3 8 Nordeste 21 Nordeste 0 952.1 -0.4 68
2018-09-09 05:00:00 18.2 9 Norte 20 Norte 0 952 -0.6 69
2018-09-09 04:00:00 18.4 11 Norte 25 Nordeste 0 952.3 -0.3 65
2018-09-09 03:00:00 18.6 10 Norte 22 Norte 0 952.5 -0.1 60
2018-09-09 02:00:00 17.6 4 Nordeste 10 Norte 0 952.6 0.2 58
2018-09-09 01:00:00 17.6 4 Nordeste 9 Nordeste 0 952.6 0.5 64
2018-09-09 00:00:00 18.4 3 Noroeste 9 Oeste 0 952.6 1.5 63
2018-09-08 23:00:00 19.4 6 Oeste 13 Oeste 0 952.4 2 59
2018-09-08 22:00:00 20.1 4 Oeste 18 Sudoeste 0 952.1 2.2 55
2018-09-08 21:00:00 21 9 Sudoeste 22 Sudoeste 0 951.1 1.3 50
2018-09-08 20:00:00 23.1 15 Sudoeste 31 Sudoeste 0 950.4 0.6 41
2018-09-08 19:00:00 25.2 15 Sudoeste 32 Sudoeste 0 949.9 -0.1 36
2018-09-08 18:00:00 26.8 8 Sudoeste 30 Sudoeste 0 949.8 -0.5 31
2018-09-08 17:00:00 26.6 14 Sudeste 28 Sudeste 0 949.8 -0.8 33
2018-09-08 16:00:00 25.9 8 Sudoeste 30 Sudoeste 0 950 -0.8 35
2018-09-08 15:00:00 24.2 10 Sudoeste 29 Sudoeste 0 950.3 -0.5 42
2018-09-08 14:00:00 24.4 18 Sudoeste 31 Sudoeste 0 950.6 0.1 42
2018-09-08 13:00:00 23.3 10 Sudoeste 26 Sudoeste 0 950.8 0.9 44
2018-09-08 12:00:00 21.9 8 Sur 19 Sur 0 950.8 1.2 50
2018-09-08 11:00:00 20.5 9 Sudoeste 14 Sur 0 950.5 1.6 57
2018-09-08 10:00:00 18 3 Sur 7 Sur 0 949.9 1.4 72
2018-09-08 09:00:00 16.3 4 Este 6 Este 0 949.6 1 76
2018-09-08 08:00:00 15.5 5 Nordeste 10 Nordeste 0 948.9 0.2 77
2018-09-08 07:00:00 14.8 7 Nordeste 11 Oeste 0 948.5 -0.2 79
2018-09-08 06:00:00 16.3 2 Sudoeste 11 Sudeste 0 948.6 -0.3 74
2018-09-08 05:00:00 18.3 7 Sur 11 Sudeste 0 948.7 -0.3 61
2018-09-08 04:00:00 17.8 5 Este 11 Este 0 948.7 -0.5 61
2018-09-08 03:00:00 16.5 2 Oeste 8 Nordeste 0 948.9 -0.1 74
2018-09-08 02:00:00 16.3 5 Nordeste 7 Nordeste 0 949 0.4 74
2018-09-08 01:00:00 17.8 4 Oeste 8 Nordeste 0 949.2 1.1 68
2018-09-08 00:00:00 18.5 3 Noroeste 7 Norte 0 949 1.5 65
2018-09-07 23:00:00 19.3 3 Norte 10 Oeste 0 948.6 1.3 60
2018-09-07 22:00:00 20 5 Este 7 Este 0 948.1 0.8 61
2018-09-07 21:00:00 22.3 3 Oeste 13 Sudoeste 0 947.5 0.4 53
2018-09-07 20:00:00 23.4 10 Sudoeste 23 Sudoeste 0 947.3 0.2 50
2018-09-07 19:00:00 24.3 13 Sur 29 Sudoeste 0 947.3 -0.2 46
2018-09-07 18:00:00 25.8 17 Sudoeste 27 Sudoeste 0 947.1 -0.6 39
2018-09-07 17:00:00 26.2 12 Sur 36 Sudoeste 0 947.1 -0.7 39
2018-09-07 16:00:00 25.8 14 Sur 30 Sudoeste 0 947.5 -0.7 41
2018-09-07 15:00:00 26.2 13 Sur 34 Sudoeste 0 947.7 -1 44
2018-09-07 14:00:00 24.5 10 Sur 30 Sur 0 947.8 -0.9 52
2018-09-07 13:00:00 23.4 10 Sur 26 Sur 0 948.2 0.1 57
2018-09-07 12:00:00 20.5 7 Sur 17 Sur 0 948.7 0.7 68
2018-09-07 11:00:00 17.2 5 Sudeste 15 Sur 0 948.7 0.8 81
2018-09-07 10:00:00 16.6 7 Sur 15 Sur 0 948.1 0.2 85
2018-09-07 09:00:00 14.7 3 Este 9 Este 0 948 0.3 84
2018-09-07 08:00:00 13.5 4 Nordeste 8 Nordeste 0 947.9 0.1 83
2018-09-07 07:00:00 13.6 4 Noroeste 9 Nordeste 0 947.9 -0.1 75
2018-09-07 06:00:00 14.4 4 Nordeste 5 Nordeste 0 947.7 -0.6 71
2018-09-07 05:00:00 15.1 4 Nordeste 12 Nordeste 0 947.8 -0.8 67
2018-09-07 04:00:00 15.8 8 Nordeste 12 Nordeste 0 948 -0.9 69
2018-09-07 03:00:00 16.6 3 Norte 10 Nordeste 0 948.3 -1.1 66
2018-09-07 02:00:00 16.3 4 Noroeste 10 Nordeste 0 948.6 -1.1 61
2018-09-07 01:00:00 16.6 4 Norte 9 Nordeste 0 948.9 -0.4 63
2018-09-07 00:00:00 17 5 Norte 7 Norte 0 949.4 0.8 69
2018-09-06 23:00:00 18.7 5 Oeste 10 Oeste 0 949.7 1.7 66
2018-09-06 22:00:00 20.3 4 Noroeste 17 Oeste 0 949.3 1.4 58
2018-09-06 21:00:00 22.7 7 Oeste 23 Sudoeste 0 948.6 0.6 53
2018-09-06 20:00:00 25.8 10 Sudoeste 22 Sudoeste 0 948 -0.3 37
2018-09-06 19:00:00 27.5 9 Sudoeste 24 Sudoeste 0 947.9 -0.9 28
2018-09-06 18:00:00 27.9 11 Sudoeste 26 Sudoeste 0 948 -1.5 29
2018-09-06 17:00:00 27.9 9 Sudoeste 24 Sudoeste 0 948.3 -1.4 28
2018-09-06 16:00:00 27.9 11 Sur 25 Sudoeste 0 948.8 -1.1 34
2018-09-06 15:00:00 27.1 10 Sudoeste 23 Sudoeste 0 949.5 -0.7 35
2018-09-06 14:00:00 26.8 13 Sur 25 Sudoeste 0 949.7 -0.3 36
2018-09-06 13:00:00 25.1 12 Sur 21 Sur 0 949.9 0.3 45
2018-09-06 12:00:00 23.1 7 Sur 17 Sudoeste 0 950.2 0.6 56
2018-09-06 11:00:00 21.8 10 Sudoeste 15 Sudoeste 0 950 1.1 59
2018-09-06 10:00:00 19.1 3 Sur 7 Sudeste 0 949.6 0.8 72
2018-09-06 09:00:00 14.6 2 Este 6 Nordeste 0 949.6 0.7 89
2018-09-06 08:00:00 13.9 2 Noroeste 7 Nordeste 0 948.9 -0.1 91
2018-09-06 07:00:00 14.5 2 Oeste 4 Este 0 948.8 -0.4 88
2018-09-06 06:00:00 15.4 2 Oeste 19 Norte 0 948.9 -0.7 88
2018-09-06 05:00:00 16.2 8 Norte 18 Noroeste 0 949 -0.9 86
2018-09-06 04:00:00 16.3 2 Sudoeste 14 Norte 0 949.2 -0.8 85
2018-09-06 03:00:00 16.9 6 Norte 21 Noroeste 0 949.6 -0.4 82
2018-09-06 02:00:00 17.8 17 Norte 31 Norte 0 949.9 -0.2 80
2018-09-06 01:00:00 18.4 14 Norte 27 Norte 0 950 0.1 75
2018-09-06 00:00:00 18.4 12 Noroeste 20 Noroeste 0 950 0.9 73
2018-09-05 23:00:00 18.5 3 Sur 10 Noroeste 0 950.1 1.2 73
2018-09-05 22:00:00 19.8 6 Noroeste 12 Noroeste 0 949.9 0.9 67
2018-09-05 21:00:00 21.6 4 Noroeste 21 Oeste 0 949.1 -0.1 51
2018-09-05 20:00:00 24.3 11 Oeste 25 Oeste 0 948.9 -0.6 44
2018-09-05 19:00:00 25 11 Noroeste 20 Noroeste 0 949 -0.7 42
2018-09-05 18:00:00 25.1 12 Oeste 27 Oeste 0 949.2 -1 41
2018-09-05 17:00:00 25.2 12 Oeste 26 Sudoeste 0 949.5 -1.2 43
2018-09-05 16:00:00 25.2 14 Sudoeste 26 Sur 0 949.7 -1.3 45
2018-09-05 15:00:00 23.5 6 Sudoeste 22 Oeste 0 950.2 -1 51
2018-09-05 14:00:00 22.3 8 Oeste 20 Sudoeste 0 950.7 -0.3 55
2018-09-05 13:00:00 22 9 Oeste 21 Sudoeste 0 951 0.5 56
2018-09-05 12:00:00 20.6 10 Oeste 17 Noroeste 0 951.2 1.1 60
2018-09-05 11:00:00 18.9 6 Sudoeste 13 Sudoeste 0 951 1.3 78
2018-09-05 10:00:00 17.8 5 Sudeste 9 Sur 0 950.5 1.2 83
2018-09-05 09:00:00 17.2 2 Sur 5 Nordeste 0 950.1 1 87
2018-09-05 08:00:00 16.9 2 Oeste 4 Sudoeste 0 949.7 0.5 87
2018-09-05 07:00:00 16.7 0 Calma 3 Norte 0 949.3 0.2 87
2018-09-05 06:00:00 16.2 0 Calma 4 Sur 0 949.1 -0.2 88
2018-09-05 05:00:00 15.9 4 Este 5 Nordeste 0 949.2 -0.1 91
2018-09-05 04:00:00 15.4 2 Este 7 Nordeste 0 949.1 0 91
2018-09-05 03:00:00 15.3 3 Nordeste 7 Nordeste 0 949.3 0.1 92
2018-09-05 02:00:00 15.7 0 Calma 7 Oeste 0 949.3 0 88
2018-09-05 01:00:00 16.3 2 Noroeste 6 Noroeste 0 949.1 0.3 84
2018-09-05 00:00:00 17.1 4 Noroeste 7 Noroeste 0 949.2 1.2 82
2018-09-04 23:00:00 18.2 4 Oeste 17 Sudoeste 0 949.3 1.7 75
2018-09-04 22:00:00 19.4 6 Oeste 14 Oeste 0 948.8 1.3 71
2018-09-04 21:00:00 20.8 8 Sudoeste 17 Oeste 0 948 0.5 63
2018-09-04 20:00:00 22.4 9 Sudoeste 26 Sur 0 947.6 0.1 55
2018-09-04 19:00:00 23.5 11 Sudoeste 25 Sudoeste 0 947.5 -0.4 49
2018-09-04 18:00:00 25.1 10 Sudoeste 24 Sudoeste 0 947.5 -0.9 46
2018-09-04 17:00:00 25 11 Sudoeste 26 Sudoeste 0 947.5 -1 46
2018-09-04 16:00:00 24.6 9 Sudoeste 26 Sudoeste 0 947.9 -0.7 48
2018-09-04 15:00:00 23.2 14 Sudoeste 26 Sur 0 948.4 -0.2 53
2018-09-04 14:00:00 23.8 17 Sudoeste 27 Sudoeste 0 948.5 0.1 51
2018-09-04 13:00:00 22.1 6 Oeste 19 Sudoeste 0 948.6 0.5 57
2018-09-04 12:00:00 20.4 8 Sudoeste 17 Sudoeste 0 948.6 0.7 64
2018-09-04 11:00:00 18.9 5 Sudoeste 12 Sudoeste 0 948.4 1 74
2018-09-04 10:00:00 17.8 4 Sudeste 7 Sudoeste 0 948.1 0.9 83
2018-09-04 09:00:00 16.4 0 Calma 6 Oeste 0 947.9 0.5 91
2018-09-04 08:00:00 15.6 4 Oeste 6 Oeste 0 947.4 -0.1 92
2018-09-04 07:00:00 16.4 2 Nordeste 9 Sudeste 0 947.2 -0.4 91
2018-09-04 06:00:00 16.3 5 Sur 8 Sur 0 947.4 -0.2 92
2018-09-04 05:00:00 16.1 2 Sudeste 6 Nordeste 0 947.5 -0.5 88
2018-09-04 04:00:00 15 3 Norte 6 Nordeste 0 947.6 -0.6 94
2018-09-04 03:00:00 15.1 0 Calma 5 Noroeste 0 947.6 -0.4 93
2018-09-04 02:00:00 15.3 4 Nordeste 7 Nordeste 0 948 -0.1 92
2018-09-04 01:00:00 15.9 0 Calma 8 Nordeste 0 948.2 0.5 88
2018-09-04 00:00:00 16.9 0 Calma 6 Oeste 0 948 1 86
2018-09-03 23:00:00 17.7 3 Noroeste 11 Oeste 0 948.1 1.3 82
2018-09-03 22:00:00 19.2 6 Sudoeste 17 Oeste 0 947.7 0.9 77
2018-09-03 21:00:00 20.9 9 Sudoeste 22 Sudoeste 0 947 0.1 69
2018-09-03 20:00:00 23.8 10 Sudoeste 20 Sudoeste 0 946.8 -0.2 57
2018-09-03 19:00:00 25.7 13 Sudoeste 24 Sudoeste 0 946.8 -0.6 50
2018-09-03 18:00:00 27.3 10 Sudoeste 29 Sudoeste 0 946.9 -0.8 46
2018-09-03 17:00:00 27.1 16 Sudoeste 27 Sur 0 947 -0.9 46
2018-09-03 16:00:00 26.8 10 Sur 25 Sudoeste 0 947.4 -0.9 46
2018-09-03 15:00:00 26.2 9 Sur 24 Oeste 0 947.7 -0.7 49
2018-09-03 14:00:00 24.7 8 Sudoeste 22 Sudoeste 0 947.9 -0.3 55
2018-09-03 13:00:00 22.3 7 Sudoeste 18 Sur 0 948.3 0.3 64
2018-09-03 12:00:00 21 8 Sur 17 Sur 0 948.4 0.6 69
2018-09-03 11:00:00 19.2 8 Sur 15 Sur 0 948.2 0.8 79
2018-09-03 10:00:00 18.6 7 Sur 15 Sur 0 948 0.5 82
2018-09-03 09:00:00 18.1 8 Sur 17 Sur 0 947.8 0.4 86
2018-09-03 08:00:00 18.1 6 Sudoeste 16 Sudoeste 0 947.4 -0.4 89
2018-09-03 07:00:00 18.4 11 Sur 18 Sur 0 947.5 -0.3 92
2018-09-03 06:00:00 19.1 5 Sur 19 Sudoeste 0 947.4 -1 90
2018-09-03 05:00:00 19.4 14 Sudoeste 30 Sudoeste 0 947.8 -0.6 89
2018-09-03 04:00:00 20.7 9 Sur 19 Sur 0 947.8 -0.6 86
2018-09-03 03:00:00 20.8 8 Sur 16 Sur 0 948.4 -0.5 88
2018-09-03 02:00:00 21 8 Sudoeste 13 Sur 0 948.4 -0.2 86
2018-09-03 01:00:00 21.5 3 Sudoeste 15 Sudoeste 0 948.4 0.2 80
2018-09-03 00:00:00 22.3 9 Sudoeste 18 Sudoeste 0 948.9 1.3 75
2018-09-02 23:00:00 23 6 Sudoeste 13 Sudoeste 0 948.6 1.1 75
2018-09-02 22:00:00 24.6 7 Sudoeste 21 Sudoeste 0 948.2 0.5 67
2018-09-02 21:00:00 26.3 11 Sudoeste 22 Sudoeste 0 947.6 0 57
2018-09-02 20:00:00 28.9 10 Sudoeste 34 Sudoeste 0 947.5 -0.6 49
2018-09-02 19:00:00 31.1 18 Sudoeste 32 Sudoeste 0 947.7 -0.7 41
2018-09-02 18:00:00 33.7 19 Sudoeste 38 Sudoeste 0 947.6 -1.4 34
2018-09-02 17:00:00 34.9 16 Sudoeste 31 Sudoeste 0 948.1 -1.3 27
2018-09-02 16:00:00 35.1 12 Sudoeste 27 Sudoeste 0 948.4 -1.4 27
2018-09-02 15:00:00 35 15 Sudoeste 26 Sudoeste 0 949 -1.1 26
2018-09-02 14:00:00 33.9 10 Sudoeste 27 Sudoeste 0 949.4 -0.8 27
2018-09-02 13:00:00 31.9 9 Sur 20 Sur 0 949.8 0 33
2018-09-02 12:00:00 29.8 10 Sur 19 Sur 0 950.1 0.3 39
2018-09-02 11:00:00 28.8 6 Sur 12 Sudeste 0 950.2 0.6 39
2018-09-02 10:00:00 25.7 2 Sudeste 8 Nordeste 0 949.8 0.3 56
2018-09-02 09:00:00 22 5 Nordeste 13 Este 0 949.8 0.3 63
2018-09-02 08:00:00 21.3 7 Nordeste 10 Nordeste 0 949.6 0.2 67
2018-09-02 07:00:00 22.2 5 Este 10 Este 0 949.5 0.4 63
2018-09-02 06:00:00 22.5 8 Este 11 Este 0 949.5 0 63
2018-09-02 05:00:00 22 3 Nordeste 12 Nordeste 0 949.4 -0.4 63
2018-09-02 04:00:00 23.8 8 Nordeste 14 Nordeste 0 949.1 -0.8 57
2018-09-02 03:00:00 22.5 2 Norte 10 Nordeste 0 949.5 -0.4 65
2018-09-02 02:00:00 22.3 4 Nordeste 10 Nordeste 0 949.8 -0.1 65
2018-09-02 01:00:00 22.7 4 Noroeste 9 Nordeste 0 949.9 0.3 62
2018-09-02 00:00:00 23.5 2 Sudeste 6 Noroeste 0 949.9 0.7 63
2018-09-01 23:00:00 24.8 3 Norte 6 Noroeste 0 949.9 1 61
2018-09-01 22:00:00 26.7 5 Noroeste 12 Sudoeste 0 949.6 0.8 55
2018-09-01 21:00:00 28.9 7 Sudoeste 18 Sudoeste 0 949.2 0.4 48
2018-09-01 20:00:00 31.3 10 Sudoeste 22 Sudoeste 0 948.9 -0.3 41
2018-09-01 19:00:00 34.1 12 Sudoeste 23 Sudoeste 0 948.8 -0.7 25
2018-09-01 18:00:00 34.7 13 Sur 27 Sur 0 948.8 -1 20
2018-09-01 17:00:00 34.9 17 Sur 35 Sur 0 949.2 -1 22
2018-09-01 16:00:00 35.1 16 Sur 32 Sudeste 0 949.5 -1.1 24
2018-09-01 15:00:00 34.7 13 Sudeste 30 Sur 0 949.8 -1 24
2018-09-01 14:00:00 33.7 12 Sudeste 29 Sur 0 950.2 -0.5 26
2018-09-01 13:00:00 32.8 12 Sudeste 27 Sudeste 0 950.6 0.3 27
2018-09-01 12:00:00 31.1 12 Sudeste 30 Sudeste 0 950.8 0.8 31
2018-09-01 11:00:00 29.1 11 Sudeste 25 Sudeste 0 950.7 0.9 37
2018-09-01 10:00:00 27.5 6 Sudeste 16 Sudeste 0 950.3 0.7 43
2018-09-01 09:00:00 22.7 4 Nordeste 9 Nordeste 0 950 0.5 59
2018-09-01 08:00:00 21.3 6 Nordeste 9 Nordeste 0 949.8 -0.1 60
2018-09-01 07:00:00 20.7 0 Calma 10 Nordeste 0 949.6 -0.3 63
2018-09-01 06:00:00 21.1 2 Noroeste 13 Nordeste 0 949.5 -0.5 63
2018-09-01 05:00:00 21.1 4 Noroeste 12 Nordeste 0 949.9 -0.3 63
2018-09-01 04:00:00 20.9 0 Calma 6 Nordeste 0 949.9 -0.5 63
2018-09-01 03:00:00 21.4 5 Nordeste 7 Nordeste 0 950 -0.6 61
2018-09-01 02:00:00 21.8 2 Nordeste 11 Oeste 0 950.2 -0.2 61
2018-09-01 01:00:00 22.6 4 Norte 9 Nordeste 0 950.4 0.4 59
2018-09-01 00:00:00 23.5 4 Oeste 8 Noroeste 0 950.6 1.3 48
2018-08-31 23:00:00 25.5 0 Calma 14 Nordeste 0 950.4 1.4 38
2018-08-31 22:00:00 27.2 7 Norte 12 Este 0 950 0.9 31
2018-08-31 21:00:00 29.3 6 Nordeste 16 Sur 0 949.3 0.1 28
2018-08-31 20:00:00 33.1 5 Sudeste 22 Sudeste 0 949 -0.6 22
2018-08-31 19:00:00 34.4 6 Este 22 Sudeste 0 949.1 -1 20
2018-08-31 18:00:00 34.8 8 Sudeste 34 Sur 0 949.2 -1.4 18
2018-08-31 17:00:00 35.1 10 Sudeste 29 Sur 0 949.6 -1.3 20
2018-08-31 16:00:00 35.6 13 Sur 27 Este 0 950.1 -1.1 20
2018-08-31 15:00:00 35.4 10 Sudeste 29 Sudeste 0 950.6 -0.9 23
2018-08-31 14:00:00 33.8 10 Este 26 Sur 0 950.9 -0.4 25
2018-08-31 13:00:00 32.8 11 Sudeste 31 Sur 0 951.2 0.1 28
2018-08-31 12:00:00 31.6 7 Sudeste 20 Sur 0 951.5 0.5 32
2018-08-31 11:00:00 29.9 9 Sudeste 17 Sudeste 0 951.3 0.7 35
2018-08-31 10:00:00 27.5 4 Este 8 Este 0 951.1 0.5 43
2018-08-31 09:00:00 23.2 6 Nordeste 9 Nordeste 0 951 0.4 49
2018-08-31 08:00:00 21.4 6 Nordeste 10 Nordeste 0 950.6 -0.3 52
2018-08-31 07:00:00 20.8 7 Nordeste 9 Nordeste 0 950.6 -0.1 55
2018-08-31 06:00:00 20.4 6 Nordeste 13 Este 0 950.6 -0.4 58
2018-08-31 05:00:00 21.2 7 Este 12 Nordeste 0 950.9 -0.4 52
2018-08-31 04:00:00 21.6 6 Nordeste 10 Nordeste 0 950.7 -0.7 50
2018-08-31 03:00:00 22.2 6 Nordeste 14 Norte 0 951 -0.5 51
2018-08-31 02:00:00 22.6 9 Norte 15 Norte 0 951.3 -0.5 52
2018-08-31 01:00:00 22.8 9 Nordeste 11 Nordeste 0 951.4 -0.1 50
2018-08-31 00:00:00 22.4 4 Sudoeste 7 Sudoeste 0 951.5 0.6 54
2018-08-30 23:00:00 23.4 4 Este 11 Norte 0 951.8 1.3 52
2018-08-30 22:00:00 25.1 3 Norte 7 Noroeste 0 951.5 0.9 47
2018-08-30 21:00:00 27.5 3 Noroeste 25 Sudoeste 0 950.9 0.4 40
2018-08-30 20:00:00 30.6 11 Sudoeste 19 Oeste 0 950.5 -0.4 34
2018-08-30 19:00:00 32.6 10 Sudoeste 21 Sudoeste 0 950.6 -0.8 27
2018-08-30 18:00:00 33.4 12 Oeste 20 Sudoeste 0 950.5 -1.2 28
2018-08-30 17:00:00 33.7 6 Sur 22 Sudoeste 0 950.9 -1.1 24
2018-08-30 16:00:00 34.6 8 Sudoeste 26 Sur 0 951.4 -0.9 23
2018-08-30 15:00:00 33.4 6 Oeste 26 Sur 0 951.7 -0.7 24
2018-08-30 14:00:00 32.6 8 Sur 23 Sur 0 952 -0.2 25
2018-08-30 13:00:00 31.8 7 Sur 19 Sur 0 952.3 0.4 29
2018-08-30 12:00:00 30.2 9 Sur 17 Sur 0 952.4 0.7 33
2018-08-30 11:00:00 28.1 5 Sudoeste 9 Sudoeste 0 952.2 1.1 39
2018-08-30 10:00:00 25.9 2 Sur 4 Sudeste 0 951.9 1 46
2018-08-30 09:00:00 21.9 2 Este 7 Norte 0 951.7 0.8 53
2018-08-30 08:00:00 22.2 5 Norte 13 Norte 0 951.1 -0.1 49
2018-08-30 07:00:00 23.2 8 Nordeste 16 Nordeste 0 950.9 -0.5 48
2018-08-30 06:00:00 22.8 6 Nordeste 23 Norte 0 950.9 -0.6 50
2018-08-30 05:00:00 22.3 9 Nordeste 34 Nordeste 0 951.2 -0.4 52
2018-08-30 04:00:00 22 15 Norte 34 Norte 0 951.4 -0.2 55
2018-08-30 03:00:00 21.5 20 Norte 36 Norte 0 951.5 -0.2 56
2018-08-30 02:00:00 21.6 27 Norte 46 Nordeste 0 951.6 0 55
2018-08-30 01:00:00 22.4 33 Norte 46 Norte 0 951.6 0.4 52
2018-08-30 00:00:00 23.4 24 Norte 41 Norte 0 951.7 0.9 48
2018-08-29 23:00:00 24.4 23 Norte 35 Norte 0 951.6 0.9 46
2018-08-29 22:00:00 25.7 18 Norte 32 Norte 0 951.2 0.6 40
2018-08-29 21:00:00 26.4 17 Norte 27 Norte 0 950.8 0.1 37
2018-08-29 20:00:00 28.4 15 Norte 30 Norte 0 950.7 -0.2 33
2018-08-29 19:00:00 29.9 15 Norte 26 Norte 0 950.6 -0.6 29
2018-08-29 18:00:00 30.9 13 Norte 30 Norte 0 950.7 -0.9 29
2018-08-29 17:00:00 31 5 Noroeste 27 Sudoeste 0 950.9 -1.1 30
2018-08-29 16:00:00 31.2 12 Sur 21 Sur 0 951.2 -1.2 29
2018-08-29 15:00:00 30.5 8 Sudoeste 20 Sur 0 951.6 -0.9 32
2018-08-29 14:00:00 30 6 Sudoeste 19 Sudoeste 0 952 -0.3 34
2018-08-29 13:00:00 27.5 11 Sur 20 Sudoeste 0 952.4 0.4 38
2018-08-29 12:00:00 25.9 7 Sudoeste 17 Sudoeste 0 952.5 0.6 45
2018-08-29 11:00:00 23.9 10 Sudoeste 16 Sudoeste 0 952.3 0.8 52
2018-08-29 10:00:00 21.6 2 Sur 5 Sudoeste 0 952 0.7 64
2018-08-29 09:00:00 15.8 0 Calma 7 Nordeste 0 951.9 0.7 84
2018-08-29 08:00:00 14.7 2 Oeste 8 Nordeste 0 951.5 0.4 88
2018-08-29 07:00:00 14.8 6 Oeste 12 Nordeste 0 951.3 0.2 89
2018-08-29 06:00:00 15.3 6 Noroeste 11 Nordeste 0 951.2 0 89
2018-08-29 05:00:00 16.5 7 Nordeste 11 Nordeste 0 951.1 -0.2 82
2018-08-29 04:00:00 17.3 7 Oeste 11 Oeste 0 951.1 0 81
2018-08-29 03:00:00 19 4 Norte 30 Norte 0 951.2 0.1 70
2018-08-29 02:00:00 19.6 21 Norte 36 Norte 0 951.3 0.3 70
2018-08-29 01:00:00 20.1 25 Norte 45 Norte 0 951.1 0.6 66
2018-08-29 00:00:00 21 25 Norte 40 Norte 0 951.1 0.9 61
2018-08-28 23:00:00 22.5 25 Norte 36 Norte 0 951 1.1 55
2018-08-28 22:00:00 23.9 18 Norte 26 Norte 0 950.5 0.7 48
2018-08-28 21:00:00 25.5 5 Noroeste 23 Sudoeste 0 950.2 0.3 29
2018-08-28 20:00:00 28.6 14 Sudoeste 27 Sudoeste 0 949.9 -0.2 25
2018-08-28 19:00:00 30.7 9 Oeste 27 Sur 0 949.8 -0.7 27
2018-08-28 18:00:00 31.5 14 Oeste 30 Sudoeste 0 949.9 -0.9 29
2018-08-28 17:00:00 31.6 15 Oeste 30 Sudoeste 0 950.1 -0.9 31
2018-08-28 16:00:00 32.1 15 Sudoeste 32 Sudoeste 0 950.5 -0.8 28
2018-08-28 15:00:00 31.9 13 Sudoeste 28 Sudoeste 0 950.8 -0.4 27
2018-08-28 14:00:00 30.6 11 Sur 24 Sudoeste 0 951 0.3 36
2018-08-28 13:00:00 29.1 11 Sur 21 Sur 0 951.3 0.5 41
2018-08-28 12:00:00 26.6 8 Sur 17 Sur 0 951.2 0.7 57
2018-08-28 11:00:00 24.7 4 Sur 14 Sur 0 950.7 0.8 65
2018-08-28 10:00:00 21.1 7 Sur 15 Sudeste 0 950.8 1.3 81
2018-08-28 09:00:00 20.2 5 Sur 10 Sur 0 950.5 1.2 87
2018-08-28 08:00:00 19.3 4 Este 9 Sur 0 949.9 0.7 89
2018-08-28 07:00:00 20 5 Sur 18 Sudeste 0 949.5 0.5 88
2018-08-28 06:00:00 20 7 Sur 17 Sudeste 0 949.3 -0.5 88
2018-08-28 05:00:00 20.2 11 Sur 22 Sur 0 949.2 -0.9 87
2018-08-28 04:00:00 20.3 14 Sur 23 Sudeste 0 949 -1.5 86
2018-08-28 03:00:00 20.8 11 Sur 29 Sur 0 949.8 -0.5 85
2018-08-28 02:00:00 21.3 9 Sur 36 Sur 0 950.1 0.5 84
2018-08-28 01:00:00 21.6 5 Sur 26 Sur 0 950.5 2.1 84
2018-08-28 00:00:00 22.1 9 Sudoeste 23 Sudoeste 0 950.3 2.9 78
2018-08-27 23:00:00 24 10 Oeste 25 Sudoeste 0 949.6 2.6 66
2018-08-27 22:00:00 26.4 13 Sudoeste 28 Oeste 0 948.4 1.5 52
2018-08-27 21:00:00 29.7 11 Sudoeste 27 Sudoeste 0 947.4 0.4 38
2018-08-27 20:00:00 33.2 14 Sudoeste 26 Sur 0 947 -0.1 25
2018-08-27 19:00:00 34.8 13 Sur 29 Sur 0 946.9 -0.3 22
2018-08-27 18:00:00 35.5 13 Sur 35 Sudoeste 0 947 0.2 21
2018-08-27 17:00:00 37.3 13 Sur 30 Sudeste 0 947.1 0 17
2018-08-27 16:00:00 37.2 15 Sur 32 Sur 0 947.2 -2.8 18
2018-08-27 15:00:00 36.1 15 Nordeste 37 Nordeste 0 946.8 -2.8 16
2018-08-27 14:00:00 33.6 18 Nordeste 55 Nordeste 0 947.1 -0.4 24
2018-08-27 13:00:00 28.9 9 Sur 28 Sur 0 950 2 29
2018-08-27 12:00:00 30.4 10 Sudeste 39 Sur 0 949.6 2 26
2018-08-27 11:00:00 30.3 12 Este 22 Este 0 947.5 -1.2 28
2018-08-27 10:00:00 27.3 5 Este 18 Nordeste 0 948 1.1 41
2018-08-27 09:00:00 24 4 Sudeste 20 Nordeste 0 947.6 1.2 44
2018-08-27 08:00:00 24.2 5 Sur 13 Sur 0 948.7 1.8 38
2018-08-27 07:00:00 25.5 3 Sur 15 Este 0 946.9 -0.4 31
2018-08-27 06:00:00 24.6 6 Este 13 Este 0 946.4 -1.3 29
2018-08-27 05:00:00 24.7 5 Nordeste 13 Este 0 946.9 -1.5 26
2018-08-27 04:00:00 25.2 8 Nordeste 13 Nordeste 0 947.3 -1.5 29
2018-08-27 03:00:00 26.1 8 Nordeste 13 Nordeste 0 947.7 -1.3 31
2018-08-27 02:00:00 24.8 9 Nordeste 13 Nordeste 0 948.4 -0.7 33
2018-08-27 01:00:00 23.6 4 Nordeste 10 Nordeste 0 948.8 0 30
2018-08-27 00:00:00 23.4 3 Oeste 9 Nordeste 0 949 0.6 33
2018-08-26 23:00:00 23.4 3 Nordeste 13 Nordeste 0 949.1 0.9 42
2018-08-26 22:00:00 26.2 5 Norte 9 Sudoeste 0 948.8 0.8 35
2018-08-26 21:00:00 29.1 3 Noroeste 15 Oeste 0 948.4 0.5 30
2018-08-26 20:00:00 32.2 11 Sudoeste 24 Sudoeste 0 948.2 0.3 25
2018-08-26 19:00:00 34.6 10 Sudoeste 27 Sudoeste 0 948 -0.3 23
2018-08-26 18:00:00 36.3 13 Sudoeste 24 Sudoeste 0 947.9 -0.7 14
2018-08-26 17:00:00 37.3 9 Oeste 23 Sudeste 0 947.9 -1.2 13
2018-08-26 16:00:00 37.2 10 Oeste 25 Sudoeste 0 948.3 -1 13
2018-08-26 15:00:00 35.8 8 Oeste 31 Sudoeste 0 948.6 -0.8 13
2018-08-26 14:00:00 35.8 7 Norte 21 Sur 0 949.1 -0.1 14
2018-08-26 13:00:00 35.1 7 Sur 19 Sudoeste 0 949.3 0.4 16
2018-08-26 12:00:00 33.6 4 Sudeste 14 Sudoeste 0 949.4 0.9 17
2018-08-26 11:00:00 32.5 4 Sur 8 Sudoeste 0 949.2 1 18
2018-08-26 10:00:00 28.5 3 Norte 5 Noroeste 0 948.9 1 26
2018-08-26 09:00:00 24.9 6 Nordeste 12 Nordeste 0 948.5 0.7 27
2018-08-26 08:00:00 23.8 3 Norte 12 Nordeste 0 948.2 0.4 26
2018-08-26 07:00:00 24.3 7 Nordeste 13 Norte 0 947.9 0 25
2018-08-26 06:00:00 25.5 8 Norte 19 Norte 0 947.8 -0.3 23
2018-08-26 05:00:00 26.3 13 Norte 28 Norte 0 947.8 -0.6 22
2018-08-26 04:00:00 26.3 22 Norte 30 Nordeste 0 947.9 -0.6 23
2018-08-26 03:00:00 26.6 17 Norte 38 Nordeste 0 948.1 -0.5 23
2018-08-26 02:00:00 26.1 28 Norte 38 Norte 0 948.4 -0.1 25
2018-08-26 01:00:00 26.4 26 Norte 37 Norte 0 948.5 0.7 24
2018-08-26 00:00:00 26.9 27 Norte 37 Norte 0 948.6 1.2 22
2018-08-25 23:00:00 28 19 Norte 30 Norte 0 948.5 1.5 20
2018-08-25 22:00:00 28.4 18 Norte 25 Norte 0 947.8 0.8 20
2018-08-25 21:00:00 29.4 4 Noroeste 18 Norte 0 947.4 0.4 25
2018-08-25 20:00:00 32.3 10 Norte 24 Norte 0 947 -0.5 21
2018-08-25 19:00:00 34.8 11 Noroeste 29 Nordeste 0 947 -1.1 17
2018-08-25 18:00:00 35.1 13 Norte 23 Noroeste 0 947 -1.5 18
2018-08-25 17:00:00 35 10 Norte 22 Norte 0 947.5 -1.5 18
2018-08-25 16:00:00 36.7 12 Noroeste 26 Sudoeste 0 948.1 -1.5 16
2018-08-25 15:00:00 37 9 Oeste 26 Oeste 0 948.5 -1.5 15
2018-08-25 14:00:00 36.5 8 Sudoeste 27 Sur 0 949 -1 16
2018-08-25 13:00:00 34.8 7 Sudoeste 20 Oeste 0 949.6 -0.2 16
2018-08-25 12:00:00 33.7 12 Sudoeste 18 Sur 0 950 0.4 16
2018-08-25 11:00:00 32.5 4 Sur 7 Sudoeste 0 950 0.8 17
2018-08-25 10:00:00 28.9 6 Nordeste 9 Norte 0 949.8 0.9 24
2018-08-25 09:00:00 26.1 7 Nordeste 19 Norte 0 949.6 0.6 23
2018-08-25 08:00:00 25.9 13 Norte 30 Norte 0 949.2 -0.1 20
2018-08-25 07:00:00 25.4 25 Norte 36 Norte 0 948.9 -0.7 23
2018-08-25 06:00:00 25.9 26 Norte 36 Norte 0 949 -1 23
2018-08-25 05:00:00 26 27 Norte 38 Norte 0 949.3 -1.3 26
2018-08-25 04:00:00 25.7 27 Norte 39 Norte 0 949.6 -1.2 29
2018-08-25 03:00:00 26.8 28 Norte 36 Norte 0 950 -0.8 28
2018-08-25 02:00:00 27.4 27 Norte 38 Nordeste 0 950.6 -0.3 27
2018-08-25 01:00:00 27.5 22 Norte 32 Norte 0 950.8 0.2 29
2018-08-25 00:00:00 28.1 21 Norte 31 Norte 0 950.8 0.6 31